createdAt,value
2022-09-07T00:00:28.707Z,50.17
2022-09-07T00:03:33.835Z,50.16
2022-09-07T00:06:42.712Z,50.18
2022-09-07T00:09:49.986Z,50.02
2022-09-07T00:12:54.971Z,49.61
2022-09-07T00:16:00.783Z,49.69
2022-09-07T00:19:09.470Z,49.74
2022-09-07T00:22:16.309Z,50.12
2022-09-07T00:25:23.734Z,50.87
2022-09-07T00:28:29.069Z,51.27
2022-09-07T00:31:36.700Z,51.30
2022-09-07T00:34:42.555Z,51.35
2022-09-07T00:37:48.532Z,51.46
2022-09-07T00:40:54.066Z,51.54
2022-09-07T00:44:07.120Z,51.40
2022-09-07T00:47:06.234Z,51.41
2022-09-07T00:50:34.793Z,51.56
2022-09-07T00:53:48.352Z,51.41
2022-09-07T00:56:55.905Z,51.56
2022-09-07T01:00:04.790Z,51.52
2022-09-07T01:03:10.347Z,51.85
2022-09-07T01:06:32.114Z,51.86
2022-09-07T01:09:37.723Z,51.79
2022-09-07T01:12:38.299Z,51.96
2022-09-07T01:16:07.958Z,52.47
2022-09-07T01:19:47.318Z,52.58
2022-09-07T01:23:32.177Z,52.64
2022-09-07T01:27:24.098Z,52.75
2022-09-07T01:30:36.802Z,52.96
2022-09-07T01:33:55.580Z,52.93
2022-09-07T01:37:17.333Z,52.97
2022-09-07T01:40:50.191Z,53.03
2022-09-07T01:44:07.961Z,53.19
2022-09-07T01:47:25.811Z,53.18
2022-09-07T01:50:59.896Z,53.18
2022-09-07T01:54:10.177Z,53.32
2022-09-07T01:57:23.171Z,53.42
2022-09-07T02:00:30.097Z,53.17
2022-09-07T02:03:50.805Z,53.24
2022-09-07T02:07:12.173Z,53.04
2022-09-07T02:10:41.356Z,52.94
2022-09-07T02:13:54.081Z,53.09
2022-09-07T02:17:20.801Z,53.31
2022-09-07T02:20:33.947Z,53.36
2022-09-07T02:23:46.409Z,53.37
2022-09-07T02:26:53.757Z,53.52
2022-09-07T02:30:00.933Z,53.45
2022-09-07T02:33:07.072Z,53.71
2022-09-07T02:36:11.854Z,53.62
2022-09-07T02:39:18.125Z,53.69
2022-09-07T02:42:24.844Z,53.69
2022-09-07T02:45:30.202Z,53.64
2022-09-07T02:48:52.660Z,53.77
2022-09-07T02:52:18.480Z,54.10
2022-09-07T02:55:50.174Z,54.34
2022-09-07T02:59:03.566Z,54.56
2022-09-07T03:02:22.650Z,54.63
2022-09-07T03:06:06.319Z,54.56
2022-09-07T03:09:13.072Z,55.12
2022-09-07T03:12:20.653Z,55.51
2022-09-07T03:15:29.566Z,55.83
2022-09-07T03:18:35.342Z,55.75
2022-09-07T03:21:41.545Z,55.63
2022-09-07T03:24:47.778Z,55.46
2022-09-07T03:27:53.829Z,55.49
2022-09-07T03:30:59.530Z,55.11
2022-09-07T03:34:05.175Z,55.52
2022-09-07T03:37:04.913Z,55.63
2022-09-07T03:40:11.675Z,55.27
2022-09-07T03:43:17.568Z,54.97
2022-09-07T03:46:26.333Z,55.01
2022-09-07T03:49:32.926Z,54.42
2022-09-07T03:52:39.607Z,54.34
2022-09-07T03:55:45.403Z,54.32
2022-09-07T03:58:51.914Z,54.15
2022-09-07T04:01:59.605Z,53.77
2022-09-07T04:05:05.824Z,53.54
2022-09-07T04:08:10.999Z,53.47
2022-09-07T04:11:17.294Z,53.46
2022-09-07T04:14:25.189Z,53.45
2022-09-07T04:17:30.921Z,53.22
2022-09-07T04:20:36.836Z,52.99
2022-09-07T04:23:42.853Z,53.12
2022-09-07T04:26:50.653Z,52.87
2022-09-07T04:29:56.929Z,52.61
2022-09-07T04:33:03.286Z,52.44
2022-09-07T04:36:10.136Z,52.48
2022-09-07T04:39:17.870Z,52.48
2022-09-07T04:42:25.604Z,52.17
2022-09-07T04:45:31.079Z,51.84
2022-09-07T04:48:37.273Z,51.21
2022-09-07T04:51:37.922Z,50.86
2022-09-07T04:54:23.654Z,50.76
2022-09-07T04:57:19.505Z,50.58
2022-09-07T05:00:07.873Z,50.37
2022-09-07T05:03:00.520Z,49.31
2022-09-07T05:05:46.788Z,48.58
2022-09-07T05:08:41.239Z,48.19
2022-09-07T05:11:31.132Z,47.47
2022-09-07T05:14:24.144Z,47.53
2022-09-07T05:17:29.455Z,47.33
2022-09-07T05:20:34.358Z,47.01
2022-09-07T05:23:39.951Z,46.82
2022-09-07T05:26:49.046Z,46.78
2022-09-07T05:30:04.647Z,46.55
2022-09-07T05:33:03.664Z,46.23
2022-09-07T05:36:13.458Z,46.40
2022-09-07T05:39:18.428Z,46.09
2022-09-07T05:42:23.446Z,45.15
2022-09-07T05:45:23.551Z,44.70
2022-09-07T05:48:29.105Z,44.27
2022-09-07T05:51:34.778Z,44.11
2022-09-07T05:54:41.199Z,43.40
2022-09-07T05:57:45.624Z,43.12
2022-09-07T06:00:51.839Z,43.11
2022-09-07T06:03:50.960Z,42.78
2022-09-07T06:07:20.645Z,42.86
2022-09-07T06:13:11.721Z,42.92
2022-09-07T06:16:19.052Z,42.29
2022-09-07T06:19:25.859Z,41.66
2022-09-07T06:22:31.500Z,41.37
2022-09-07T06:25:37.057Z,41.13
2022-09-07T06:28:49.190Z,40.31
2022-09-07T06:35:01.461Z,39.92
2022-09-07T06:38:07.510Z,39.53
2022-09-07T06:44:29.426Z,38.38
2022-09-07T06:47:35.248Z,37.69
2022-09-07T06:50:41.701Z,37.58
2022-09-07T06:53:47.550Z,37.60
2022-09-07T06:56:54.154Z,37.04
2022-09-07T07:00:00.294Z,36.58
2022-09-07T07:03:09.016Z,37.07
2022-09-07T07:06:14.684Z,36.58
2022-09-07T07:09:25.735Z,36.11
2022-09-07T07:15:36.285Z,35.77
2022-09-07T07:18:42.232Z,36.54
2022-09-07T07:22:10.668Z,36.35
2022-09-07T07:24:56.023Z,35.77
2022-09-07T07:31:12.175Z,35.52
2022-09-07T07:34:04.005Z,35.22
2022-09-07T07:37:10.416Z,34.61
2022-09-07T07:40:17.536Z,33.92
2022-09-07T07:43:23.533Z,33.50
2022-09-07T07:46:33.454Z,33.46
2022-09-07T07:49:39.774Z,32.29
2022-09-07T07:53:39.621Z,32.72
2022-09-07T07:55:57.958Z,33.33
2022-09-07T07:59:04.647Z,33.55
2022-09-07T08:02:11.795Z,31.93
2022-09-07T08:05:17.416Z,31.52
2022-09-07T08:08:23.377Z,31.78
2022-09-07T08:11:34.466Z,32.56
2022-09-07T08:14:40.119Z,32.23
2022-09-07T08:17:45.744Z,31.72
2022-09-07T08:20:51.075Z,30.42
2022-09-07T08:23:57.157Z,29.78
2022-09-07T08:27:03.771Z,29.43
2022-09-07T08:30:08.668Z,29.51
2022-09-07T08:33:13.782Z,29.69
2022-09-07T08:36:34.699Z,28.98
2022-09-07T08:39:40.331Z,29.09
2022-09-07T08:43:03.393Z,29.41
2022-09-07T08:46:11.652Z,29.78
2022-09-07T08:49:16.475Z,29.77
2022-09-07T08:52:29.099Z,29.56
2022-09-07T08:55:39.541Z,28.12
2022-09-07T08:59:02.787Z,28.15
2022-09-07T09:05:16.943Z,28.62
2022-09-07T09:08:56.214Z,28.01
2022-09-07T09:12:36.823Z,27.93
2022-09-07T09:15:44.125Z,27.96
2022-09-07T09:19:08.451Z,27.83
2022-09-07T09:22:38.444Z,28.04
2022-09-07T09:25:47.428Z,27.83
2022-09-07T09:28:53.641Z,27.41
2022-09-07T09:32:00.096Z,27.88
2022-09-07T09:35:32.699Z,27.49
2022-09-07T09:38:51.159Z,27.89
2022-09-07T09:41:57.653Z,27.83
2022-09-07T09:45:02.809Z,27.66
2022-09-07T09:48:09.193Z,27.62
2022-09-07T09:54:55.836Z,28.07
2022-09-07T10:04:45.784Z,28.47
2022-09-07T10:07:52.819Z,28.46
2022-09-07T10:11:21.074Z,28.16
2022-09-07T10:14:45.829Z,28.43
2022-09-07T10:17:57.468Z,28.67
2022-09-07T10:21:03.148Z,28.46
2022-09-07T10:24:21.689Z,27.39
2022-09-07T10:27:48.090Z,27.55
2022-09-07T10:31:04.033Z,27.83
2022-09-07T10:34:26.017Z,28.10
2022-09-07T10:37:54.969Z,28.09
2022-09-07T10:41:17.362Z,28.02
2022-09-07T10:44:23.372Z,28.13
2022-09-07T10:47:39.403Z,27.93
2022-09-07T10:51:13.737Z,28.08
2022-09-07T10:54:39.606Z,28.12
2022-09-07T10:59:01.512Z,28.10
2022-09-07T11:01:44.105Z,28.58
2022-09-07T11:05:38.559Z,28.04
2022-09-07T11:09:32.611Z,28.10
2022-09-07T11:12:50.332Z,28.68
2022-09-07T11:15:59.926Z,27.54
2022-09-07T11:22:34.603Z,27.65
2022-09-07T11:25:55.371Z,27.61
2022-09-07T11:29:31.619Z,26.66
2022-09-07T11:32:27.741Z,27.15
2022-09-07T11:36:11.279Z,27.17
2022-09-07T11:39:22.508Z,27.54
2022-09-07T11:42:47.050Z,26.67
2022-09-07T11:46:11.483Z,26.66
2022-09-07T11:49:18.073Z,27.02
2022-09-07T11:52:54.892Z,27.54
2022-09-07T11:56:02.485Z,27.00
2022-09-07T11:59:37.136Z,27.76
2022-09-07T12:03:08.414Z,27.43
2022-09-07T12:06:51.541Z,27.25
2022-09-07T12:10:26.705Z,27.29
2022-09-07T12:13:49.238Z,27.21
2022-09-07T12:17:41.715Z,26.93
2022-09-07T12:21:01.381Z,27.28
2022-09-07T12:24:07.679Z,27.75
2022-09-07T12:27:14.541Z,27.83
2022-09-07T12:30:31.118Z,27.38
2022-09-07T12:33:39.617Z,27.03
2022-09-07T12:36:49.227Z,27.13
2022-09-07T12:39:54.494Z,26.83
2022-09-07T12:43:09.422Z,27.10
2022-09-07T12:46:08.585Z,27.17
2022-09-07T12:49:32.459Z,27.03
2022-09-07T12:52:47.921Z,27.25
2022-09-07T12:56:26.594Z,26.94
2022-09-07T13:00:01.209Z,26.86
2022-09-07T13:07:02.638Z,26.45
2022-09-07T13:10:11.079Z,26.46
2022-09-07T13:20:11.524Z,27.21
2022-09-07T13:23:35.012Z,26.83
2022-09-07T13:27:09.597Z,27.01
2022-09-07T13:34:13.905Z,27.04
2022-09-07T13:37:30.060Z,27.44
2022-09-07T13:40:39.739Z,27.42
2022-09-07T13:43:44.906Z,27.06
2022-09-07T13:47:28.869Z,27.11
2022-09-07T13:50:56.675Z,27.54
2022-09-07T13:54:20.768Z,27.16
2022-09-07T13:57:33.988Z,27.41
2022-09-07T14:00:39.023Z,27.39
2022-09-07T14:03:49.383Z,27.08
2022-09-07T14:06:55.500Z,27.11
2022-09-07T14:10:01.209Z,27.55
2022-09-07T14:13:22.671Z,27.19
2022-09-07T14:16:28.684Z,26.67
2022-09-07T14:19:41.244Z,26.68
2022-09-07T14:22:53.250Z,27.34
2022-09-07T14:29:00.764Z,27.58
2022-09-07T14:32:07.586Z,27.60
2022-09-07T14:35:24.103Z,27.35
2022-09-07T14:41:43.456Z,27.22
2022-09-07T14:44:54.353Z,26.99
2022-09-07T14:48:01.375Z,26.94
2022-09-07T14:51:29.726Z,26.95
2022-09-07T14:54:17.510Z,27.55
2022-09-07T14:57:27.640Z,27.72
2022-09-07T15:00:46.622Z,27.79
2022-09-07T15:04:00.668Z,27.81
2022-09-07T15:07:07.045Z,27.73
2022-09-07T15:10:32.246Z,27.94
2022-09-07T15:13:45.585Z,27.63
2022-09-07T15:20:10.677Z,28.17
2022-09-07T15:23:20.162Z,28.94
2022-09-07T15:29:35.841Z,28.96
2022-09-07T15:32:47.183Z,29.34
2022-09-07T15:35:53.524Z,29.42
2022-09-07T15:39:01.599Z,29.26
2022-09-07T15:45:14.698Z,29.79
2022-09-07T15:48:20.448Z,30.07
2022-09-07T15:54:39.617Z,30.31
2022-09-07T15:57:52.799Z,30.35
2022-09-07T16:04:09.163Z,30.79
2022-09-07T16:07:15.283Z,31.12
2022-09-07T16:10:21.669Z,31.40
2022-09-07T16:13:31.440Z,31.40
2022-09-07T16:19:43.276Z,32.30
2022-09-07T16:26:10.883Z,34.15
2022-09-07T16:29:17.917Z,33.58
2022-09-07T16:35:29.308Z,34.48
2022-09-07T16:38:49.592Z,34.51
2022-09-07T16:41:44.216Z,34.10
2022-09-07T16:44:50.319Z,34.16
2022-09-07T16:47:56.879Z,34.46
2022-09-07T16:51:02.861Z,34.68
2022-09-07T16:54:10.062Z,34.41
2022-09-07T16:57:15.859Z,34.44
2022-09-07T17:00:23.638Z,34.56
2022-09-07T17:03:30.264Z,34.90
2022-09-07T17:06:37.548Z,35.62
2022-09-07T17:09:42.382Z,35.97
2022-09-07T17:12:48.080Z,36.34
2022-09-07T17:15:53.853Z,36.69
2022-09-07T17:22:07.237Z,37.05
2022-09-07T17:25:14.118Z,37.43
2022-09-07T17:28:20.527Z,37.14
2022-09-07T17:34:35.369Z,37.25
2022-09-07T17:37:41.320Z,37.00
2022-09-07T17:40:47.727Z,37.27
2022-09-07T17:43:54.627Z,36.77
2022-09-07T17:46:59.932Z,37.50
2022-09-07T17:50:04.783Z,38.13
2022-09-07T17:53:03.604Z,37.91
2022-09-07T17:56:09.926Z,38.27
2022-09-07T18:02:21.808Z,38.52
2022-09-07T18:05:28.138Z,38.46
2022-09-07T18:08:34.003Z,38.52
2022-09-07T18:11:48.127Z,38.36
2022-09-07T18:14:45.424Z,38.47
2022-09-07T18:17:52.161Z,38.29
2022-09-07T18:20:58.326Z,37.90
2022-09-07T18:24:14.067Z,37.90
2022-09-07T18:27:20.614Z,38.01
2022-09-07T18:30:28.079Z,38.04
2022-09-07T18:33:35.576Z,38.27
2022-09-07T18:36:44.006Z,38.61
2022-09-07T18:39:50.883Z,39.19
2022-09-07T18:42:55.769Z,39.33
2022-09-07T18:46:02.273Z,39.53
2022-09-07T18:49:09.103Z,39.45
2022-09-07T18:55:24.079Z,40.26
2022-09-07T18:58:29.818Z,40.46
2022-09-07T19:01:37.247Z,40.50
2022-09-07T19:07:50.531Z,41.63
2022-09-07T19:10:56.907Z,41.11
2022-09-07T19:14:07.373Z,41.29
2022-09-07T19:17:13.483Z,41.37
2022-09-07T19:20:19.083Z,41.77
2022-09-07T19:23:23.999Z,42.18
2022-09-07T19:26:28.962Z,42.62
2022-09-07T19:29:35.437Z,43.21
2022-09-07T19:32:40.213Z,43.16
2022-09-07T19:35:48.468Z,43.26
2022-09-07T19:38:55.888Z,43.17
2022-09-07T19:42:01.340Z,43.28
2022-09-07T19:45:07.628Z,43.51
2022-09-07T19:48:13.739Z,43.77
2022-09-07T19:51:21.710Z,43.69
2022-09-07T19:54:27.076Z,43.72
2022-09-07T19:57:31.794Z,43.69
2022-09-07T20:00:37.808Z,43.84
2022-09-07T20:03:42.816Z,43.95
2022-09-07T20:06:48.850Z,44.13
2022-09-07T20:09:55.766Z,44.07
2022-09-07T20:13:01.359Z,44.41
2022-09-07T20:16:07.055Z,44.52
2022-09-07T20:19:15.127Z,44.77
2022-09-07T20:22:21.264Z,45.05
2022-09-07T20:25:28.051Z,45.08
2022-09-07T20:28:33.930Z,45.10
2022-09-07T20:31:39.303Z,45.31
2022-09-07T20:34:45.509Z,45.50
2022-09-07T20:37:51.908Z,45.49
2022-09-07T20:41:10.425Z,45.66
2022-09-07T20:44:17.436Z,45.58
2022-09-07T20:47:25.922Z,46.14
2022-09-07T20:50:31.809Z,46.43
2022-09-07T20:53:37.470Z,46.87
2022-09-07T20:56:44.008Z,46.95
2022-09-07T20:59:49.837Z,47.06
2022-09-07T21:02:54.678Z,47.15
2022-09-07T21:06:00.069Z,47.19
2022-09-07T21:09:05.912Z,47.41
2022-09-07T21:12:11.575Z,47.51
2022-09-07T21:15:17.956Z,47.65
2022-09-07T21:18:28.982Z,47.63
2022-09-07T21:21:38.326Z,47.71
2022-09-07T21:24:41.886Z,47.90
2022-09-07T21:27:47.770Z,48.21
2022-09-07T21:30:53.974Z,47.83
2022-09-07T21:33:58.869Z,47.46
2022-09-07T21:37:04.881Z,47.46
2022-09-07T21:40:12.337Z,47.64
2022-09-07T21:43:19.092Z,48.02
2022-09-07T21:46:32.846Z,48.01
2022-09-07T21:49:31.913Z,48.01
2022-09-07T21:52:38.821Z,48.34
2022-09-07T21:55:44.182Z,48.57
2022-09-07T21:58:50.392Z,48.58
2022-09-07T22:01:56.186Z,48.86
2022-09-07T22:05:01.893Z,49.48
2022-09-07T22:08:07.526Z,49.88
2022-09-07T22:11:22.966Z,50.17
2022-09-07T22:14:29.666Z,50.32
2022-09-07T22:17:36.059Z,50.27
2022-09-07T22:20:40.905Z,50.51
2022-09-07T22:23:50.128Z,50.33
2022-09-07T22:26:55.918Z,50.29
2022-09-07T22:30:02.294Z,50.42
2022-09-07T22:33:08.281Z,50.41
2022-09-07T22:36:34.454Z,50.66
2022-09-07T22:39:39.325Z,50.71
2022-09-07T22:42:44.390Z,50.35
2022-09-07T22:45:50.773Z,50.46
2022-09-07T22:48:56.490Z,50.46
2022-09-07T22:52:03.127Z,50.91
2022-09-07T22:55:09.847Z,51.23
2022-09-07T22:58:15.728Z,51.58
2022-09-07T23:01:21.293Z,51.61
2022-09-07T23:07:41.629Z,51.89
2022-09-07T23:10:49.010Z,51.58
2022-09-07T23:13:55.880Z,51.44
2022-09-07T23:17:01.456Z,51.47
2022-09-07T23:20:07.238Z,51.99
2022-09-07T23:23:12.493Z,52.36
2022-09-07T23:26:19.168Z,52.52
2022-09-07T23:29:20.715Z,52.55
2022-09-07T23:32:25.456Z,52.70
2022-09-07T23:35:30.403Z,52.44
2022-09-07T23:38:35.879Z,52.28
2022-09-07T23:41:43.058Z,52.44
2022-09-07T23:44:48.068Z,52.46
2022-09-07T23:47:53.526Z,53.08
2022-09-07T23:51:00.874Z,52.98
2022-09-07T23:54:05.614Z,52.69
2022-09-07T23:57:11.402Z,53.06
